sensor_id;sensor_type;location;lat;lon;timestamp;temperature;humidity
5775;DHT22;2913;51.120;6.772;2023-02-15T00:01:33;4.10;99.90
5775;DHT22;2913;51.120;6.772;2023-02-15T00:04:02;4.00;99.90
5775;DHT22;2913;51.120;6.772;2023-02-15T00:06:28;4.00;99.90
5775;DHT22;2913;51.120;6.772;2023-02-15T00:08:54;4.00;99.90
5775;DHT22;2913;51.120;6.772;2023-02-15T00:11:23;4.00;99.90
5775;DHT22;2913;51.120;6.772;2023-02-15T00:14:15;4.00;99.90
5775;DHT22;2913;51.120;6.772;2023-02-15T00:16:42;4.00;99.90
5775;DHT22;2913;51.120;6.772;2023-02-15T00:19:09;4.00;99.90
5775;DHT22;2913;51.120;6.772;2023-02-15T00:21:38;4.00;99.90
5775;DHT22;2913;51.120;6.772;2023-02-15T00:24:06;4.00;99.90
5775;DHT22;2913;51.120;6.772;2023-02-15T00:26:40;4.00;99.90
5775;DHT22;2913;51.120;6.772;2023-02-15T00:29:07;3.90;99.90
5775;DHT22;2913;51.120;6.772;2023-02-15T00:31:34;3.90;99.90
5775;DHT22;2913;51.120;6.772;2023-02-15T00:34:03;3.80;99.90
5775;DHT22;2913;51.120;6.772;2023-02-15T00:36:29;3.80;99.90
5775;DHT22;2913;51.120;6.772;2023-02-15T00:38:55;3.80;99.90
5775;DHT22;2913;51.120;6.772;2023-02-15T00:41:25;3.80;99.90
5775;DHT22;2913;51.120;6.772;2023-02-15T00:43:51;3.80;99.90
5775;DHT22;2913;51.120;6.772;2023-02-15T00:46:17;3.70;99.90
5775;DHT22;2913;51.120;6.772;2023-02-15T00:48:42;3.80;99.90
5775;DHT22;2913;51.120;6.772;2023-02-15T00:51:08;3.70;99.90
5775;DHT22;2913;51.120;6.772;2023-02-15T00:53:36;3.70;99.90
5775;DHT22;2913;51.120;6.772;2023-02-15T00:56:01;3.60;99.90
5775;DHT22;2913;51.120;6.772;2023-02-15T00:58:27;3.60;99.90
5775;DHT22;2913;51.120;6.772;2023-02-15T01:01:03;3.60;99.90
5775;DHT22;2913;51.120;6.772;2023-02-15T01:03:29;3.70;99.90
5775;DHT22;2913;51.120;6.772;2023-02-15T01:05:55;3.60;99.90
5775;DHT22;2913;51.120;6.772;2023-02-15T01:08:21;3.60;99.90
5775;DHT22;2913;51.120;6.772;2023-02-15T01:10:46;3.50;99.90
5775;DHT22;2913;51.120;6.772;2023-02-15T01:13:13;3.60;99.90
5775;DHT22;2913;51.120;6.772;2023-02-15T01:15:39;3.50;99.90
5775;DHT22;2913;51.120;6.772;2023-02-15T01:18:05;3.50;99.90
5775;DHT22;2913;51.120;6.772;2023-02-15T01:20:35;3.60;99.90
5775;DHT22;2913;51.120;6.772;2023-02-15T01:23:05;3.60;99.90
5775;DHT22;2913;51.120;6.772;2023-02-15T01:25:34;3.60;99.90
5775;DHT22;2913;51.120;6.772;2023-02-15T01:28:01;3.50;99.90
5775;DHT22;2913;51.120;6.772;2023-02-15T01:30:26;3.50;99.90
5775;DHT22;2913;51.120;6.772;2023-02-15T01:32:52;3.50;99.90
5775;DHT22;2913;51.120;6.772;2023-02-15T01:35:17;3.50;99.90
5775;DHT22;2913;51.120;6.772;2023-02-15T01:37:44;3.50;99.90
5775;DHT22;2913;51.120;6.772;2023-02-15T01:40:14;3.50;99.90
5775;DHT22;2913;51.120;6.772;2023-02-15T01:42:40;3.40;99.90
5775;DHT22;2913;51.120;6.772;2023-02-15T01:45:19;3.40;99.90
5775;DHT22;2913;51.120;6.772;2023-02-15T01:50:28;3.40;99.90
5775;DHT22;2913;51.120;6.772;2023-02-15T01:58:26;3.30;99.90
5775;DHT22;2913;51.120;6.772;2023-02-15T02:00:56;3.30;99.90
5775;DHT22;2913;51.120;6.772;2023-02-15T02:06:00;3.30;99.90
5775;DHT22;2913;51.120;6.772;2023-02-15T02:08:25;3.30;99.90
5775;DHT22;2913;51.120;6.772;2023-02-15T02:10:51;3.30;99.90
5775;DHT22;2913;51.120;6.772;2023-02-15T02:13:16;3.30;99.90
5775;DHT22;2913;51.120;6.772;2023-02-15T02:16:00;3.20;99.90
5775;DHT22;2913;51.120;6.772;2023-02-15T02:21:48;3.10;99.90
5775;DHT22;2913;51.120;6.772;2023-02-15T02:24:44;3.10;99.90
5775;DHT22;2913;51.120;6.772;2023-02-15T02:27:23;3.10;99.90
5775;DHT22;2913;51.120;6.772;2023-02-15T02:38:27;3.00;99.90
5775;DHT22;2913;51.120;6.772;2023-02-15T02:44:13;2.90;99.90
5775;DHT22;2913;51.120;6.772;2023-02-15T02:49:09;3.00;99.90
5775;DHT22;2913;51.120;6.772;2023-02-15T02:51:34;2.90;99.90
5775;DHT22;2913;51.120;6.772;2023-02-15T02:54:05;2.90;99.90
5775;DHT22;2913;51.120;6.772;2023-02-15T02:56:45;2.90;99.90
5775;DHT22;2913;51.120;6.772;2023-02-15T02:59:23;2.90;99.90
5775;DHT22;2913;51.120;6.772;2023-02-15T03:04:45;2.90;99.90
5775;DHT22;2913;51.120;6.772;2023-02-15T03:07:17;2.80;99.90
5775;DHT22;2913;51.120;6.772;2023-02-15T03:09:52;2.80;99.90
5775;DHT22;2913;51.120;6.772;2023-02-15T03:12:29;2.80;99.90
5775;DHT22;2913;51.120;6.772;2023-02-15T03:15:07;2.80;99.90
5775;DHT22;2913;51.120;6.772;2023-02-15T03:17:37;2.80;99.90
5775;DHT22;2913;51.120;6.772;2023-02-15T03:20:22;2.80;99.90
5775;DHT22;2913;51.120;6.772;2023-02-15T03:22:56;2.80;99.90
5775;DHT22;2913;51.120;6.772;2023-02-15T03:25:36;2.80;99.90
5775;DHT22;2913;51.120;6.772;2023-02-15T03:28:11;2.80;99.90
5775;DHT22;2913;51.120;6.772;2023-02-15T03:30:43;2.80;99.90
5775;DHT22;2913;51.120;6.772;2023-02-15T03:33:11;2.80;99.90
5775;DHT22;2913;51.120;6.772;2023-02-15T03:38:14;2.80;99.90
5775;DHT22;2913;51.120;6.772;2023-02-15T03:40:45;2.70;99.90
5775;DHT22;2913;51.120;6.772;2023-02-15T03:46:20;2.70;99.90
5775;DHT22;2913;51.120;6.772;2023-02-15T03:48:52;2.70;99.90
5775;DHT22;2913;51.120;6.772;2023-02-15T03:51:26;2.70;99.90
5775;DHT22;2913;51.120;6.772;2023-02-15T03:54:43;2.80;99.90
5775;DHT22;2913;51.120;6.772;2023-02-15T03:57:18;2.70;99.90
5775;DHT22;2913;51.120;6.772;2023-02-15T04:03:09;2.70;99.90
5775;DHT22;2913;51.120;6.772;2023-02-15T04:05:36;2.70;99.90
5775;DHT22;2913;51.120;6.772;2023-02-15T04:08:02;2.60;99.90
5775;DHT22;2913;51.120;6.772;2023-02-15T04:10:28;2.50;99.90
5775;DHT22;2913;51.120;6.772;2023-02-15T04:13:12;2.50;99.90
5775;DHT22;2913;51.120;6.772;2023-02-15T04:15:40;2.50;99.90
5775;DHT22;2913;51.120;6.772;2023-02-15T04:18:24;2.40;99.90
5775;DHT22;2913;51.120;6.772;2023-02-15T04:21:09;2.40;99.90
5775;DHT22;2913;51.120;6.772;2023-02-15T04:23:52;2.40;99.90
5775;DHT22;2913;51.120;6.772;2023-02-15T04:26:36;2.40;99.90
5775;DHT22;2913;51.120;6.772;2023-02-15T04:29:02;2.40;99.90
5775;DHT22;2913;51.120;6.772;2023-02-15T04:31:28;2.30;99.90
5775;DHT22;2913;51.120;6.772;2023-02-15T04:33:55;2.30;99.90
5775;DHT22;2913;51.120;6.772;2023-02-15T04:36:21;2.30;99.90
5775;DHT22;2913;51.120;6.772;2023-02-15T04:38:46;2.30;99.90
5775;DHT22;2913;51.120;6.772;2023-02-15T04:41:12;2.30;99.90
5775;DHT22;2913;51.120;6.772;2023-02-15T04:43:40;2.30;99.90
5775;DHT22;2913;51.120;6.772;2023-02-15T04:46:06;2.30;99.90
5775;DHT22;2913;51.120;6.772;2023-02-15T04:48:34;2.30;99.90
5775;DHT22;2913;51.120;6.772;2023-02-15T04:51:04;2.20;99.90
5775;DHT22;2913;51.120;6.772;2023-02-15T04:53:30;2.20;99.90
5775;DHT22;2913;51.120;6.772;2023-02-15T04:55:58;2.20;99.90
5775;DHT22;2913;51.120;6.772;2023-02-15T04:58:25;2.20;99.90
5775;DHT22;2913;51.120;6.772;2023-02-15T05:00:57;2.20;99.90
5775;DHT22;2913;51.120;6.772;2023-02-15T05:03:23;2.20;99.90
5775;DHT22;2913;51.120;6.772;2023-02-15T05:05:49;2.20;99.90
5775;DHT22;2913;51.120;6.772;2023-02-15T05:08:14;2.20;99.90
5775;DHT22;2913;51.120;6.772;2023-02-15T05:10:40;2.20;99.90
5775;DHT22;2913;51.120;6.772;2023-02-15T05:13:07;2.30;99.90
5775;DHT22;2913;51.120;6.772;2023-02-15T05:15:33;2.30;99.90
5775;DHT22;2913;51.120;6.772;2023-02-15T05:17:59;2.30;99.90
5775;DHT22;2913;51.120;6.772;2023-02-15T05:20:26;2.30;99.90
5775;DHT22;2913;51.120;6.772;2023-02-15T05:22:54;2.30;99.90
5775;DHT22;2913;51.120;6.772;2023-02-15T05:25:20;2.20;99.90
5775;DHT22;2913;51.120;6.772;2023-02-15T05:28:04;2.30;99.90
5775;DHT22;2913;51.120;6.772;2023-02-15T05:31:06;2.20;99.90
5775;DHT22;2913;51.120;6.772;2023-02-15T05:33:37;2.10;99.90
5775;DHT22;2913;51.120;6.772;2023-02-15T05:36:05;2.10;99.90
5775;DHT22;2913;51.120;6.772;2023-02-15T05:38:31;2.10;99.90
5775;DHT22;2913;51.120;6.772;2023-02-15T05:40:57;2.10;99.90
5775;DHT22;2913;51.120;6.772;2023-02-15T05:43:26;2.10;99.90
5775;DHT22;2913;51.120;6.772;2023-02-15T05:45:53;2.10;99.90
5775;DHT22;2913;51.120;6.772;2023-02-15T05:48:21;2.10;99.90
5775;DHT22;2913;51.120;6.772;2023-02-15T05:50:59;2.10;99.90
5775;DHT22;2913;51.120;6.772;2023-02-15T05:53:26;2.10;99.90
5775;DHT22;2913;51.120;6.772;2023-02-15T05:55:54;2.10;99.90
5775;DHT22;2913;51.120;6.772;2023-02-15T05:58:33;2.10;99.90
5775;DHT22;2913;51.120;6.772;2023-02-15T06:00:59;2.10;99.90
5775;DHT22;2913;51.120;6.772;2023-02-15T06:03:27;2.00;99.90
5775;DHT22;2913;51.120;6.772;2023-02-15T06:05:56;2.00;99.90
5775;DHT22;2913;51.120;6.772;2023-02-15T06:08:22;2.00;99.90
5775;DHT22;2913;51.120;6.772;2023-02-15T06:10:47;2.10;99.90
5775;DHT22;2913;51.120;6.772;2023-02-15T06:13:13;2.00;99.90
5775;DHT22;2913;51.120;6.772;2023-02-15T06:15:38;2.00;99.90
5775;DHT22;2913;51.120;6.772;2023-02-15T06:18:04;2.00;99.90
5775;DHT22;2913;51.120;6.772;2023-02-15T06:20:30;2.00;99.90
5775;DHT22;2913;51.120;6.772;2023-02-15T06:22:55;1.90;99.90
5775;DHT22;2913;51.120;6.772;2023-02-15T06:25:23;1.90;99.90
5775;DHT22;2913;51.120;6.772;2023-02-15T06:27:52;2.00;99.90
5775;DHT22;2913;51.120;6.772;2023-02-15T06:30:17;1.90;99.90
5775;DHT22;2913;51.120;6.772;2023-02-15T06:32:43;1.90;99.90
5775;DHT22;2913;51.120;6.772;2023-02-15T06:35:11;1.90;99.90
5775;DHT22;2913;51.120;6.772;2023-02-15T06:37:39;2.20;99.90
5775;DHT22;2913;51.120;6.772;2023-02-15T06:40:06;1.90;99.90
5775;DHT22;2913;51.120;6.772;2023-02-15T06:42:34;1.90;99.90
5775;DHT22;2913;51.120;6.772;2023-02-15T06:44:59;1.80;99.90
5775;DHT22;2913;51.120;6.772;2023-02-15T06:47:25;1.90;99.90
5775;DHT22;2913;51.120;6.772;2023-02-15T06:49:56;1.80;99.90
5775;DHT22;2913;51.120;6.772;2023-02-15T06:52:24;1.80;99.90
5775;DHT22;2913;51.120;6.772;2023-02-15T06:54:50;1.80;99.90
5775;DHT22;2913;51.120;6.772;2023-02-15T06:57:15;1.80;99.90
5775;DHT22;2913;51.120;6.772;2023-02-15T06:59:43;1.80;99.90
5775;DHT22;2913;51.120;6.772;2023-02-15T07:02:11;1.80;99.90
5775;DHT22;2913;51.120;6.772;2023-02-15T07:04:37;1.80;99.90
5775;DHT22;2913;51.120;6.772;2023-02-15T07:07:07;1.90;99.90
5775;DHT22;2913;51.120;6.772;2023-02-15T07:09:35;1.90;99.90
5775;DHT22;2913;51.120;6.772;2023-02-15T07:12:03;1.90;99.90
5775;DHT22;2913;51.120;6.772;2023-02-15T07:14:48;1.90;99.90
5775;DHT22;2913;51.120;6.772;2023-02-15T07:17:13;2.00;99.90
5775;DHT22;2913;51.120;6.772;2023-02-15T07:19:39;2.10;99.90
5775;DHT22;2913;51.120;6.772;2023-02-15T07:22:07;2.10;99.90
5775;DHT22;2913;51.120;6.772;2023-02-15T07:24:32;2.10;99.90
5775;DHT22;2913;51.120;6.772;2023-02-15T07:26:58;2.20;99.90
5775;DHT22;2913;51.120;6.772;2023-02-15T07:29:24;2.20;99.90
5775;DHT22;2913;51.120;6.772;2023-02-15T07:31:50;2.30;99.90
5775;DHT22;2913;51.120;6.772;2023-02-15T07:34:18;2.40;99.90
5775;DHT22;2913;51.120;6.772;2023-02-15T07:36:43;2.40;99.90
5775;DHT22;2913;51.120;6.772;2023-02-15T07:39:10;2.50;99.90
5775;DHT22;2913;51.120;6.772;2023-02-15T07:41:35;2.70;99.90
5775;DHT22;2913;51.120;6.772;2023-02-15T07:44:01;2.70;99.90
5775;DHT22;2913;51.120;6.772;2023-02-15T07:46:27;2.80;99.90
5775;DHT22;2913;51.120;6.772;2023-02-15T07:48:53;3.00;99.90
5775;DHT22;2913;51.120;6.772;2023-02-15T07:51:21;3.10;99.90
5775;DHT22;2913;51.120;6.772;2023-02-15T07:53:51;3.10;99.90
5775;DHT22;2913;51.120;6.772;2023-02-15T07:56:17;3.20;99.90
5775;DHT22;2913;51.120;6.772;2023-02-15T07:58:43;3.30;99.90
5775;DHT22;2913;51.120;6.772;2023-02-15T08:01:27;3.30;99.90
5775;DHT22;2913;51.120;6.772;2023-02-15T08:03:54;3.50;99.90
5775;DHT22;2913;51.120;6.772;2023-02-15T08:06:21;3.60;99.90
5775;DHT22;2913;51.120;6.772;2023-02-15T08:08:47;3.60;99.90
5775;DHT22;2913;51.120;6.772;2023-02-15T08:11:28;3.70;99.90
5775;DHT22;2913;51.120;6.772;2023-02-15T08:16:45;3.70;99.90
5775;DHT22;2913;51.120;6.772;2023-02-15T08:19:18;3.80;99.90
5775;DHT22;2913;51.120;6.772;2023-02-15T08:22:18;3.70;99.90
5775;DHT22;2913;51.120;6.772;2023-02-15T08:24:37;3.60;99.90
5775;DHT22;2913;51.120;6.772;2023-02-15T08:27:09;3.70;99.90
5775;DHT22;2913;51.120;6.772;2023-02-15T08:29:36;3.70;99.90
5775;DHT22;2913;51.120;6.772;2023-02-15T08:32:08;3.70;99.90
5775;DHT22;2913;51.120;6.772;2023-02-15T08:34:38;3.80;99.90
5775;DHT22;2913;51.120;6.772;2023-02-15T08:37:04;3.80;99.90
5775;DHT22;2913;51.120;6.772;2023-02-15T08:39:31;3.80;99.90
5775;DHT22;2913;51.120;6.772;2023-02-15T08:42:06;3.90;99.90
5775;DHT22;2913;51.120;6.772;2023-02-15T08:44:34;4.00;99.90
5775;DHT22;2913;51.120;6.772;2023-02-15T08:46:59;4.00;99.90
5775;DHT22;2913;51.120;6.772;2023-02-15T08:49:28;4.00;99.90
5775;DHT22;2913;51.120;6.772;2023-02-15T08:51:54;4.20;99.90
5775;DHT22;2913;51.120;6.772;2023-02-15T08:54:21;4.30;99.90
5775;DHT22;2913;51.120;6.772;2023-02-15T08:56:47;4.30;99.90
5775;DHT22;2913;51.120;6.772;2023-02-15T08:59:18;4.30;99.90
5775;DHT22;2913;51.120;6.772;2023-02-15T09:01:47;4.30;99.90
5775;DHT22;2913;51.120;6.772;2023-02-15T09:04:13;4.40;99.90
5775;DHT22;2913;51.120;6.772;2023-02-15T09:06:44;4.50;99.90
5775;DHT22;2913;51.120;6.772;2023-02-15T09:09:10;4.60;99.90
5775;DHT22;2913;51.120;6.772;2023-02-15T09:11:41;4.50;99.90
5775;DHT22;2913;51.120;6.772;2023-02-15T09:14:13;4.70;99.90
5775;DHT22;2913;51.120;6.772;2023-02-15T09:16:40;4.90;99.90
5775;DHT22;2913;51.120;6.772;2023-02-15T09:19:07;4.90;99.90
5775;DHT22;2913;51.120;6.772;2023-02-15T09:21:35;4.90;99.90
5775;DHT22;2913;51.120;6.772;2023-02-15T09:24:06;5.00;99.90
5775;DHT22;2913;51.120;6.772;2023-02-15T09:26:34;5.00;99.90
5775;DHT22;2913;51.120;6.772;2023-02-15T09:29:05;5.10;99.90
5775;DHT22;2913;51.120;6.772;2023-02-15T09:31:36;5.30;99.90
5775;DHT22;2913;51.120;6.772;2023-02-15T09:34:04;5.30;99.90
5775;DHT22;2913;51.120;6.772;2023-02-15T09:36:35;5.40;99.90
5775;DHT22;2913;51.120;6.772;2023-02-15T09:39:15;5.40;99.90
5775;DHT22;2913;51.120;6.772;2023-02-15T10:15:17;6.30;99.90
5775;DHT22;2913;51.120;6.772;2023-02-15T10:18:16;6.50;99.90
5775;DHT22;2913;51.120;6.772;2023-02-15T10:20:56;6.50;99.90
5775;DHT22;2913;51.120;6.772;2023-02-15T10:26:31;6.80;99.90
5775;DHT22;2913;51.120;6.772;2023-02-15T10:29:10;6.90;99.90
5775;DHT22;2913;51.120;6.772;2023-02-15T10:31:55;7.00;99.90
5775;DHT22;2913;51.120;6.772;2023-02-15T10:34:43;7.10;99.90
5775;DHT22;2913;51.120;6.772;2023-02-15T10:51:05;7.50;99.90
5775;DHT22;2913;51.120;6.772;2023-02-15T11:07:46;7.90;99.90
5775;DHT22;2913;51.120;6.772;2023-02-15T11:12:52;8.30;99.90
5775;DHT22;2913;51.120;6.772;2023-02-15T11:15:36;8.30;99.90
5775;DHT22;2913;51.120;6.772;2023-02-15T11:20:44;8.50;99.90
5775;DHT22;2913;51.120;6.772;2023-02-15T11:23:14;8.50;99.90
5775;DHT22;2913;51.120;6.772;2023-02-15T11:25:44;8.50;99.90
5775;DHT22;2913;51.120;6.772;2023-02-15T11:28:19;8.60;99.90
5775;DHT22;2913;51.120;6.772;2023-02-15T11:30:53;8.80;99.90
5775;DHT22;2913;51.120;6.772;2023-02-15T11:33:27;8.80;99.90
5775;DHT22;2913;51.120;6.772;2023-02-15T11:36:06;8.90;99.90
5775;DHT22;2913;51.120;6.772;2023-02-15T11:38:36;9.00;99.90
5775;DHT22;2913;51.120;6.772;2023-02-15T11:41:14;9.20;99.90
5775;DHT22;2913;51.120;6.772;2023-02-15T11:44:16;9.30;99.90
5775;DHT22;2913;51.120;6.772;2023-02-15T11:46:44;9.40;99.90
5775;DHT22;2913;51.120;6.772;2023-02-15T11:49:30;9.50;99.90
5775;DHT22;2913;51.120;6.772;2023-02-15T11:52:06;9.40;99.90
5775;DHT22;2913;51.120;6.772;2023-02-15T11:54:36;9.60;99.90
5775;DHT22;2913;51.120;6.772;2023-02-15T11:57:33;9.70;99.90
5775;DHT22;2913;51.120;6.772;2023-02-15T12:02:52;9.90;99.90
5775;DHT22;2913;51.120;6.772;2023-02-15T12:05:22;9.80;99.90
5775;DHT22;2913;51.120;6.772;2023-02-15T12:08:02;9.80;99.90
5775;DHT22;2913;51.120;6.772;2023-02-15T12:10:36;10.10;99.90
5775;DHT22;2913;51.120;6.772;2023-02-15T12:13:13;10.30;99.90
5775;DHT22;2913;51.120;6.772;2023-02-15T12:15:42;10.40;99.90
5775;DHT22;2913;51.120;6.772;2023-02-15T12:18:45;10.50;99.90
5775;DHT22;2913;51.120;6.772;2023-02-15T12:21:15;10.50;99.90
5775;DHT22;2913;51.120;6.772;2023-02-15T12:23:52;10.50;99.90
5775;DHT22;2913;51.120;6.772;2023-02-15T12:26:32;10.50;99.90
5775;DHT22;2913;51.120;6.772;2023-02-15T12:29:07;10.70;99.90
5775;DHT22;2913;51.120;6.772;2023-02-15T12:31:41;10.70;99.90
5775;DHT22;2913;51.120;6.772;2023-02-15T12:34:26;10.80;99.90
5775;DHT22;2913;51.120;6.772;2023-02-15T12:36:57;10.80;99.90
5775;DHT22;2913;51.120;6.772;2023-02-15T12:39:27;11.10;99.90
5775;DHT22;2913;51.120;6.772;2023-02-15T12:44:25;11.10;99.90
5775;DHT22;2913;51.120;6.772;2023-02-15T12:49:38;11.30;99.90
5775;DHT22;2913;51.120;6.772;2023-02-15T12:54:50;11.60;99.90
5775;DHT22;2913;51.120;6.772;2023-02-15T12:57:32;11.60;99.90
5775;DHT22;2913;51.120;6.772;2023-02-15T13:00:46;11.60;99.90
5775;DHT22;2913;51.120;6.772;2023-02-15T13:02:54;11.60;99.90
5775;DHT22;2913;51.120;6.772;2023-02-15T13:05:39;11.70;99.90
5775;DHT22;2913;51.120;6.772;2023-02-15T13:08:28;11.90;99.90
5775;DHT22;2913;51.120;6.772;2023-02-15T13:10:59;12.00;99.90
5775;DHT22;2913;51.120;6.772;2023-02-15T13:13:30;12.00;98.50
5775;DHT22;2913;51.120;6.772;2023-02-15T13:16:06;11.90;98.30
5775;DHT22;2913;51.120;6.772;2023-02-15T13:18:38;12.10;98.20
5775;DHT22;2913;51.120;6.772;2023-02-15T13:21:18;12.20;97.90
5775;DHT22;2913;51.120;6.772;2023-02-15T13:23:47;12.20;97.20
5775;DHT22;2913;51.120;6.772;2023-02-15T13:26:22;12.30;97.50
5775;DHT22;2913;51.120;6.772;2023-02-15T13:28:57;12.30;97.50
5775;DHT22;2913;51.120;6.772;2023-02-15T13:31:27;12.50;97.20
5775;DHT22;2913;51.120;6.772;2023-02-15T13:34:00;12.60;96.60
5775;DHT22;2913;51.120;6.772;2023-02-15T13:36:29;12.60;96.70
5775;DHT22;2913;51.120;6.772;2023-02-15T13:39:20;12.60;96.50
5775;DHT22;2913;51.120;6.772;2023-02-15T13:41:53;12.60;96.10
5775;DHT22;2913;51.120;6.772;2023-02-15T13:55:50;12.80;95.20
5775;DHT22;2913;51.120;6.772;2023-02-15T14:09:30;13.00;94.30
5775;DHT22;2913;51.120;6.772;2023-02-15T14:15:01;13.00;93.90
5775;DHT22;2913;51.120;6.772;2023-02-15T14:17:43;12.90;94.00
5775;DHT22;2913;51.120;6.772;2023-02-15T14:20:24;13.00;93.70
5775;DHT22;2913;51.120;6.772;2023-02-15T14:25:50;13.00;93.20
5775;DHT22;2913;51.120;6.772;2023-02-15T14:28:21;13.00;93.40
5775;DHT22;2913;51.120;6.772;2023-02-15T14:30:52;12.80;93.10
5775;DHT22;2913;51.120;6.772;2023-02-15T14:33:38;12.80;93.10
5775;DHT22;2913;51.120;6.772;2023-02-15T14:36:07;12.90;93.30
5775;DHT22;2913;51.120;6.772;2023-02-15T14:41:20;12.90;93.90
5775;DHT22;2913;51.120;6.772;2023-02-15T14:49:11;12.90;93.90
5775;DHT22;2913;51.120;6.772;2023-02-15T14:54:10;12.90;94.50
5775;DHT22;2913;51.120;6.772;2023-02-15T14:56:36;12.90;94.70
5775;DHT22;2913;51.120;6.772;2023-02-15T14:59:14;12.90;94.20
5775;DHT22;2913;51.120;6.772;2023-02-15T15:01:40;12.80;94.70
5775;DHT22;2913;51.120;6.772;2023-02-15T15:04:13;12.80;94.60
5775;DHT22;2913;51.120;6.772;2023-02-15T15:06:42;12.70;94.20
5775;DHT22;2913;51.120;6.772;2023-02-15T15:09:13;12.70;94.60
5775;DHT22;2913;51.120;6.772;2023-02-15T15:11:52;12.70;94.90
5775;DHT22;2913;51.120;6.772;2023-02-15T15:16:55;12.60;94.90
5775;DHT22;2913;51.120;6.772;2023-02-15T15:22:25;12.50;95.10
5775;DHT22;2913;51.120;6.772;2023-02-15T15:24:56;12.50;95.50
5775;DHT22;2913;51.120;6.772;2023-02-15T15:43:56;12.30;97.20
5775;DHT22;2913;51.120;6.772;2023-02-15T15:49:33;12.30;97.70
5775;DHT22;2913;51.120;6.772;2023-02-15T15:52:07;12.20;97.80
5775;DHT22;2913;51.120;6.772;2023-02-15T15:54:34;12.10;97.80
5775;DHT22;2913;51.120;6.772;2023-02-15T15:57:04;12.10;98.30
5775;DHT22;2913;51.120;6.772;2023-02-15T15:59:33;12.10;98.60
5775;DHT22;2913;51.120;6.772;2023-02-15T16:02:06;12.10;99.00
5775;DHT22;2913;51.120;6.772;2023-02-15T16:04:34;12.00;98.80
5775;DHT22;2913;51.120;6.772;2023-02-15T16:09:58;11.90;99.20
5775;DHT22;2913;51.120;6.772;2023-02-15T16:12:31;11.90;99.50
5775;DHT22;2913;51.120;6.772;2023-02-15T16:15:04;11.90;99.60
5775;DHT22;2913;51.120;6.772;2023-02-15T16:17:41;11.80;99.90
5775;DHT22;2913;51.120;6.772;2023-02-15T16:28:50;11.50;99.90
5775;DHT22;2913;51.120;6.772;2023-02-15T16:31:20;11.50;99.90
5775;DHT22;2913;51.120;6.772;2023-02-15T16:33:48;11.40;99.90
5775;DHT22;2913;51.120;6.772;2023-02-15T16:36:21;11.30;99.90
5775;DHT22;2913;51.120;6.772;2023-02-15T16:38:59;11.30;99.90
5775;DHT22;2913;51.120;6.772;2023-02-15T16:41:31;11.20;99.90
5775;DHT22;2913;51.120;6.772;2023-02-15T16:44:03;11.20;99.90
5775;DHT22;2913;51.120;6.772;2023-02-15T16:46:36;11.10;99.90
5775;DHT22;2913;51.120;6.772;2023-02-15T16:49:13;11.10;99.90
5775;DHT22;2913;51.120;6.772;2023-02-15T16:51:41;11.10;99.90
5775;DHT22;2913;51.120;6.772;2023-02-15T16:54:16;11.00;99.90
5775;DHT22;2913;51.120;6.772;2023-02-15T16:56:44;11.00;99.90
5775;DHT22;2913;51.120;6.772;2023-02-15T17:01:53;10.90;99.90
5775;DHT22;2913;51.120;6.772;2023-02-15T17:09:53;10.60;99.90
5775;DHT22;2913;51.120;6.772;2023-02-15T17:15:36;10.50;99.90
5775;DHT22;2913;51.120;6.772;2023-02-15T17:18:05;10.40;99.90
5775;DHT22;2913;51.120;6.772;2023-02-15T17:20:36;10.30;99.90
5775;DHT22;2913;51.120;6.772;2023-02-15T17:23:04;10.30;99.90
5775;DHT22;2913;51.120;6.772;2023-02-15T17:25:39;10.20;99.90
5775;DHT22;2913;51.120;6.772;2023-02-15T17:28:18;10.20;99.90
5775;DHT22;2913;51.120;6.772;2023-02-15T17:30:44;10.20;99.90
5775;DHT22;2913;51.120;6.772;2023-02-15T17:36:14;10.10;99.90
5775;DHT22;2913;51.120;6.772;2023-02-15T17:41:26;9.90;99.90
5775;DHT22;2913;51.120;6.772;2023-02-15T17:43:57;9.90;99.90
5775;DHT22;2913;51.120;6.772;2023-02-15T17:46:23;10.00;99.90
5775;DHT22;2913;51.120;6.772;2023-02-15T17:48:52;9.90;99.90
5775;DHT22;2913;51.120;6.772;2023-02-15T17:51:20;9.80;99.90
5775;DHT22;2913;51.120;6.772;2023-02-15T17:53:48;9.80;99.90
5775;DHT22;2913;51.120;6.772;2023-02-15T17:56:34;9.80;99.90
5775;DHT22;2913;51.120;6.772;2023-02-15T17:59:00;9.80;99.90
5775;DHT22;2913;51.120;6.772;2023-02-15T18:01:28;9.80;99.90
5775;DHT22;2913;51.120;6.772;2023-02-15T18:04:14;9.80;99.90
5775;DHT22;2913;51.120;6.772;2023-02-15T18:06:58;9.80;99.90
5775;DHT22;2913;51.120;6.772;2023-02-15T18:09:47;9.70;99.90
5775;DHT22;2913;51.120;6.772;2023-02-15T18:12:35;9.70;99.90
5775;DHT22;2913;51.120;6.772;2023-02-15T18:15:04;9.60;99.90
5775;DHT22;2913;51.120;6.772;2023-02-15T18:17:35;9.50;99.90
5775;DHT22;2913;51.120;6.772;2023-02-15T18:20:03;9.50;99.90
5775;DHT22;2913;51.120;6.772;2023-02-15T18:22:30;9.50;99.90
5775;DHT22;2913;51.120;6.772;2023-02-15T18:24:58;9.40;99.90
5775;DHT22;2913;51.120;6.772;2023-02-15T18:27:24;9.40;99.90
5775;DHT22;2913;51.120;6.772;2023-02-15T18:29:50;9.30;99.90
5775;DHT22;2913;51.120;6.772;2023-02-15T18:32:18;9.20;99.90
5775;DHT22;2913;51.120;6.772;2023-02-15T18:34:47;9.20;99.90
5775;DHT22;2913;51.120;6.772;2023-02-15T18:37:16;9.20;99.90
5775;DHT22;2913;51.120;6.772;2023-02-15T18:39:49;9.10;99.90
5775;DHT22;2913;51.120;6.772;2023-02-15T18:42:24;9.20;99.90
5775;DHT22;2913;51.120;6.772;2023-02-15T18:44:58;9.10;99.90
5775;DHT22;2913;51.120;6.772;2023-02-15T18:47:25;9.00;99.90
5775;DHT22;2913;51.120;6.772;2023-02-15T18:49:54;9.00;99.90
5775;DHT22;2913;51.120;6.772;2023-02-15T18:52:25;9.00;99.90
5775;DHT22;2913;51.120;6.772;2023-02-15T18:54:58;8.90;99.90
5775;DHT22;2913;51.120;6.772;2023-02-15T18:57:27;8.80;99.90
5775;DHT22;2913;51.120;6.772;2023-02-15T18:59:53;8.70;99.90
5775;DHT22;2913;51.120;6.772;2023-02-15T19:02:21;8.70;99.90
5775;DHT22;2913;51.120;6.772;2023-02-15T19:04:46;8.60;99.90
5775;DHT22;2913;51.120;6.772;2023-02-15T19:07:35;8.60;99.90
5775;DHT22;2913;51.120;6.772;2023-02-15T19:10:03;8.60;99.90
5775;DHT22;2913;51.120;6.772;2023-02-15T19:12:34;8.50;99.90
5775;DHT22;2913;51.120;6.772;2023-02-15T19:15:00;8.50;99.90
5775;DHT22;2913;51.120;6.772;2023-02-15T19:17:30;8.40;99.90
5775;DHT22;2913;51.120;6.772;2023-02-15T19:19:56;8.40;99.90
5775;DHT22;2913;51.120;6.772;2023-02-15T19:24:53;8.30;99.90
5775;DHT22;2913;51.120;6.772;2023-02-15T19:27:26;8.30;99.90
5775;DHT22;2913;51.120;6.772;2023-02-15T19:29:56;8.20;99.90
5775;DHT22;2913;51.120;6.772;2023-02-15T19:32:25;8.20;99.90
5775;DHT22;2913;51.120;6.772;2023-02-15T19:34:52;8.10;99.90
5775;DHT22;2913;51.120;6.772;2023-02-15T19:39:50;8.00;99.90
5775;DHT22;2913;51.120;6.772;2023-02-15T19:42:21;8.00;99.90
5775;DHT22;2913;51.120;6.772;2023-02-15T19:44:50;8.00;99.90
5775;DHT22;2913;51.120;6.772;2023-02-15T19:47:16;8.00;99.90
5775;DHT22;2913;51.120;6.772;2023-02-15T19:49:46;7.90;99.90
5775;DHT22;2913;51.120;6.772;2023-02-15T19:52:21;7.90;99.90
5775;DHT22;2913;51.120;6.772;2023-02-15T19:54:53;7.90;99.90
5775;DHT22;2913;51.120;6.772;2023-02-15T19:57:19;7.90;99.90
5775;DHT22;2913;51.120;6.772;2023-02-15T19:59:48;7.90;99.90
5775;DHT22;2913;51.120;6.772;2023-02-15T20:02:15;7.80;99.90
5775;DHT22;2913;51.120;6.772;2023-02-15T20:04:42;7.80;99.90
5775;DHT22;2913;51.120;6.772;2023-02-15T20:07:36;7.80;99.90
5775;DHT22;2913;51.120;6.772;2023-02-15T20:10:02;7.80;99.90
5775;DHT22;2913;51.120;6.772;2023-02-15T20:12:28;7.70;99.90
5775;DHT22;2913;51.120;6.772;2023-02-15T20:14:55;7.70;99.90
5775;DHT22;2913;51.120;6.772;2023-02-15T20:17:20;7.80;99.90
5775;DHT22;2913;51.120;6.772;2023-02-15T20:19:48;7.70;99.90
5775;DHT22;2913;51.120;6.772;2023-02-15T20:22:23;7.70;99.90